Time;durP1;ratioP1;P1;durP2;ratioP2;P2;SDS_P1;SDS_P2;PMS_P1;PMS_P2;Temp;Humidity;BMP_temperature;BMP_pressure;BME280_temperature;BME280_humidity;BME280_pressure;Samples;Min_cycle;Max_cycle;Signal;HPM_P1;HPM_P2
2023/03/17 00:01:50;;;;;;;;;;;;;;;1.67;66.16;101743.02;107447;1254;99196;-61
2023/03/17 00:04:19;;;;;;;;;;;;;;;1.72;66.19;101745.50;107408;1254;113073;-62
2023/03/17 00:06:47;;;;;;;;;;;;;;;1.76;66.22;101744.30;107431;1254;109005;-62
2023/03/17 00:09:16;;;;;;;;;;;;;;;1.81;66.19;101746.79;107455;1259;108624;-61
2023/03/17 00:11:45;;;;;;;;;;;;;;;1.76;66.27;101746.77;107299;1254;99246;-61
2023/03/17 00:14:15;;;;;;;;;;;;;;;1.66;66.18;101748.19;107419;1254;99068;-61
2023/03/17 00:16:47;;;;;;;;;;;;;;;1.60;66.04;101748.75;107425;1254;112654;-63
2023/03/17 00:19:16;;;;;;;;;;;;;;;1.58;66.36;101750.75;107400;1254;109233;-62
2023/03/17 00:21:45;;;;;;;;;;;;;;;1.60;66.32;101754.23;107370;1254;108679;-61
2023/03/17 00:24:14;;;;;;;;;;;;;;;1.64;66.19;101756.59;107408;1254;99218;-62
2023/03/17 00:26:43;;;;;;;;;;;;;;;1.68;66.26;101752.71;107264;1254;99198;-62
2023/03/17 00:29:12;;;;;;;;;;;;;;;1.70;66.15;101753.35;107418;1254;113709;-60
2023/03/17 00:31:44;;;;;;;;;;;;;;;1.72;66.25;101754.86;107382;1254;109343;-61
2023/03/17 00:34:15;;;;;;;;;;;;;;;1.73;66.15;101752.35;107421;1254;108810;-61
2023/03/17 00:36:48;;;;;;;;;;;;;;;1.74;66.03;101756.23;107381;1254;99173;-62
2023/03/17 00:39:17;;;;;;;;;;;;;;;1.73;65.96;101753.59;107434;1254;99263;-62
2023/03/17 00:41:46;;;;;;;;;;;;;;;1.69;65.98;101765.04;107456;1254;112695;-62
2023/03/17 00:44:19;;;;;;;;;;;;;;;1.65;65.99;101768.20;107391;1254;111366;-62
2023/03/17 00:46:47;;;;;;;;;;;;;;;1.60;65.95;101770.84;107393;1259;109680;-63
2023/03/17 00:49:17;;;;;;;;;;;;;;;1.56;65.82;101774.88;107300;1260;99076;-61
2023/03/17 00:51:44;;;;;;;;;;;;;;;1.52;65.82;101775.05;107455;1254;99260;-62
2023/03/17 00:54:15;;;;;;;;;;;;;;;1.49;65.78;101777.42;107440;1259;113073;-61
2023/03/17 00:56:44;;;;;;;;;;;;;;;1.47;65.77;101778.54;107152;1254;109074;-61
2023/03/17 00:59:13;;;;;;;;;;;;;;;1.45;65.77;101782.32;107281;1254;107678;-61
2023/03/17 01:01:43;;;;;;;;;;;;;;;1.44;65.78;101785.39;107441;1254;99229;-63
2023/03/17 01:04:11;;;;;;;;;;;;;;;1.40;65.84;101784.09;107300;1254;99163;-62
2023/03/17 01:06:39;;;;;;;;;;;;;;;1.36;65.86;101787.75;107221;1254;114436;-62
2023/03/17 01:09:11;;;;;;;;;;;;;;;1.33;65.78;101785.22;107450;1254;109708;-61
2023/03/17 01:11:40;;;;;;;;;;;;;;;1.30;65.66;101786.00;107326;1254;107623;-61
2023/03/17 01:14:10;;;;;;;;;;;;;;;1.28;65.74;101785.89;107444;1254;99088;-62
2023/03/17 01:16:39;;;;;;;;;;;;;;;1.27;65.79;101790.18;107419;1254;99264;-62
2023/03/17 01:19:08;;;;;;;;;;;;;;;1.23;65.72;101791.69;107408;1255;113076;-61
2023/03/17 01:21:38;;;;;;;;;;;;;;;1.23;65.68;101793.30;107253;1254;109075;-62
2023/03/17 01:24:07;;;;;;;;;;;;;;;1.24;65.55;101802.30;107434;1254;108691;-61
2023/03/17 01:26:35;;;;;;;;;;;;;;;1.24;65.65;101808.09;107323;1254;99179;-62
2023/03/17 01:29:05;;;;;;;;;;;;;;;1.25;65.51;101807.36;107242;1254;99092;-61
2023/03/17 01:31:33;;;;;;;;;;;;;;;1.28;65.48;101810.46;107435;1254;113511;-61
2023/03/17 01:34:03;;;;;;;;;;;;;;;1.31;65.47;101814.77;107400;1254;109978;-62
2023/03/17 01:36:31;;;;;;;;;;;;;;;1.35;65.56;101817.48;107409;1254;108497;-62
2023/03/17 01:38:59;;;;;;;;;;;;;;;1.39;65.40;101821.58;107421;1254;99178;-62
2023/03/17 01:41:27;;;;;;;;;;;;;;;1.43;65.30;101818.29;107421;1254;99051;-61
2023/03/17 01:43:56;;;;;;;;;;;;;;;1.45;65.25;101820.34;107432;1254;112554;-61
2023/03/17 01:46:28;;;;;;;;;;;;;;;1.46;64.75;101828.63;107443;1255;109059;-62
2023/03/17 01:49:06;;;;;;;;;;;;;;;1.44;64.79;101829.02;107426;1254;108354;-62
2023/03/17 01:51:54;;;;;;;;;;;;;;;1.44;64.66;101828.53;107433;1254;99160;-62
2023/03/17 01:54:27;;;;;;;;;;;;;;;1.45;64.67;101833.23;107431;1254;99201;-61
2023/03/17 01:56:57;;;;;;;;;;;;;;;1.45;64.64;101838.02;107307;1254;113483;-61
2023/03/17 01:59:27;;;;;;;;;;;;;;;1.45;64.54;101837.31;107275;1254;109610;-62
2023/03/17 02:02:01;;;;;;;;;;;;;;;1.42;64.29;101839.73;107428;1254;107441;-61
2023/03/17 02:04:30;;;;;;;;;;;;;;;1.36;63.96;101840.05;107192;1254;99242;-61
2023/03/17 02:06:59;;;;;;;;;;;;;;;1.32;64.01;101848.85;107443;1254;99323;-61
2023/03/17 02:09:27;;;;;;;;;;;;;;;1.27;63.90;101846.55;107400;1254;112966;-62
2023/03/17 02:11:57;;;;;;;;;;;;;;;1.23;63.96;101856.03;107421;1254;109322;-62
2023/03/17 02:14:26;;;;;;;;;;;;;;;1.20;63.75;101858.97;107406;1254;108108;-61
2023/03/17 02:16:55;;;;;;;;;;;;;;;1.15;63.91;101854.34;107198;1254;99157;-62
2023/03/17 02:19:23;;;;;;;;;;;;;;;1.10;63.85;101859.44;107402;1254;99080;-62
2023/03/17 02:21:53;;;;;;;;;;;;;;;1.07;63.87;101864.52;107436;1254;112605;-61
2023/03/17 02:24:31;;;;;;;;;;;;;;;1.03;64.11;101862.85;107450;1254;109905;-62
2023/03/17 02:27:02;;;;;;;;;;;;;;;0.99;64.09;101868.11;107418;1254;108923;-61
2023/03/17 02:29:33;;;;;;;;;;;;;;;0.93;64.24;101870.55;107346;1254;99157;-62
2023/03/17 02:32:03;;;;;;;;;;;;;;;0.87;64.45;101878.35;107470;1254;99199;-62
2023/03/17 02:34:32;;;;;;;;;;;;;;;0.75;64.96;101881.17;107476;1254;113671;-61
2023/03/17 02:37:00;;;;;;;;;;;;;;;0.62;65.61;101882.77;107431;1254;108471;-61
2023/03/17 02:39:31;;;;;;;;;;;;;;;0.49;66.24;101887.94;107437;1254;108331;-61
2023/03/17 02:42:00;;;;;;;;;;;;;;;0.37;66.50;101888.62;107203;1254;99242;-62
2023/03/17 02:44:29;;;;;;;;;;;;;;;0.28;67.38;101889.20;107422;1254;99214;-62
2023/03/17 02:46:58;;;;;;;;;;;;;;;0.21;67.36;101894.00;107408;1254;113154;-62
2023/03/17 02:49:27;;;;;;;;;;;;;;;0.19;66.97;101894.21;107422;1258;109049;-61
2023/03/17 02:51:56;;;;;;;;;;;;;;;0.21;67.24;101896.83;107407;1256;108490;-62
2023/03/17 02:54:24;;;;;;;;;;;;;;;0.23;67.06;101901.70;107391;1254;99157;-60
2023/03/17 02:56:52;;;;;;;;;;;;;;;0.24;67.51;101900.98;107235;1254;99947;-61
2023/03/17 02:59:21;;;;;;;;;;;;;;;0.25;67.11;101901.30;107415;1254;112766;-61
2023/03/17 03:01:49;;;;;;;;;;;;;;;0.28;67.01;101905.61;107458;1254;107002;-62
2023/03/17 03:04:18;;;;;;;;;;;;;;;0.33;66.87;101906.38;107393;1254;108014;-61
2023/03/17 03:06:47;;;;;;;;;;;;;;;0.38;66.89;101909.60;107455;1254;99824;-62
2023/03/17 03:09:16;;;;;;;;;;;;;;;0.41;66.97;101906.67;107443;1254;99196;-61
2023/03/17 03:11:44;;;;;;;;;;;;;;;0.45;66.77;101912.59;107445;1254;113738;-62
2023/03/17 03:14:13;;;;;;;;;;;;;;;0.45;66.87;101913.27;107445;1253;108093;-61
2023/03/17 03:16:42;;;;;;;;;;;;;;;0.42;66.51;101911.59;107483;1254;108100;-63
2023/03/17 03:19:11;;;;;;;;;;;;;;;0.43;66.81;101909.81;107495;1254;99172;-61
2023/03/17 03:21:39;;;;;;;;;;;;;;;0.43;66.70;101912.61;107484;1257;99229;-61
2023/03/17 03:24:08;;;;;;;;;;;;;;;0.47;66.84;101915.70;107450;1253;113058;-62
2023/03/17 03:26:36;;;;;;;;;;;;;;;0.45;66.53;101913.98;107435;1254;111967;-63
2023/03/17 03:29:04;;;;;;;;;;;;;;;0.43;66.56;101914.93;107491;1254;107792;-62
2023/03/17 03:31:32;;;;;;;;;;;;;;;0.36;67.04;101916.52;107367;1253;99265;-62
2023/03/17 03:34:01;;;;;;;;;;;;;;;0.24;67.29;101915.09;107508;1254;99160;-62
2023/03/17 03:36:29;;;;;;;;;;;;;;;0.10;68.00;101916.52;107523;1254;113675;-61
2023/03/17 03:38:58;;;;;;;;;;;;;;;-0.03;68.51;101914.39;107517;1253;109116;-61
2023/03/17 03:41:26;;;;;;;;;;;;;;;-0.18;69.27;101921.09;107531;1254;107715;-61
2023/03/17 03:43:55;;;;;;;;;;;;;;;-0.31;69.94;101924.05;107495;1254;99214;-62
2023/03/17 03:46:25;;;;;;;;;;;;;;;-0.45;70.71;101926.34;107486;1257;99068;-63
2023/03/17 03:48:54;;;;;;;;;;;;;;;-0.56;71.10;101932.77;107520;1254;112429;-61
2023/03/17 03:51:22;;;;;;;;;;;;;;;-0.63;71.23;101931.00;107497;1257;111081;-61
2023/03/17 03:53:50;;;;;;;;;;;;;;;-0.68;71.24;101932.17;107418;1254;107613;-62
2023/03/17 03:56:18;;;;;;;;;;;;;;;-0.72;71.67;101937.72;107458;1254;99374;-61
2023/03/17 03:58:46;;;;;;;;;;;;;;;-0.76;72.10;101939.20;107477;1254;99173;-61
2023/03/17 04:01:15;;;;;;;;;;;;;;;-0.80;72.06;101945.10;107493;1254;113459;-60
2023/03/17 04:03:46;;;;;;;;;;;;;;;-0.83;72.36;101944.83;107472;1253;109726;-61
2023/03/17 04:06:15;;;;;;;;;;;;;;;-0.87;72.37;101944.20;107472;1254;107088;-62
2023/03/17 04:08:43;;;;;;;;;;;;;;;-0.90;72.41;101943.05;107467;1253;99170;-61
2023/03/17 04:11:12;;;;;;;;;;;;;;;-0.92;72.43;101947.48;107480;1254;99273;-62
2023/03/17 04:13:40;;;;;;;;;;;;;;;-0.95;72.52;101950.89;107457;1257;113283;-61
2023/03/17 04:16:09;;;;;;;;;;;;;;;-0.98;72.74;101956.59;107472;1254;109318;-62
2023/03/17 04:18:37;;;;;;;;;;;;;;;-1.00;72.69;101953.29;107477;1254;108463;-60
2023/03/17 04:21:07;;;;;;;;;;;;;;;-1.02;72.68;101953.67;107493;1257;99324;-61
2023/03/17 04:23:35;;;;;;;;;;;;;;;-1.03;72.80;101956.00;107521;1254;99298;-61
2023/03/17 04:26:04;;;;;;;;;;;;;;;-1.04;72.90;101958.50;107540;1254;113224;-61
2023/03/17 04:28:32;;;;;;;;;;;;;;;-1.04;72.64;101963.24;107495;1254;107683;-61
2023/03/17 04:31:01;;;;;;;;;;;;;;;-1.04;72.58;101963.07;107476;1254;107788;-61
2023/03/17 04:33:29;;;;;;;;;;;;;;;-1.02;72.75;101966.02;107446;1254;99172;-60
2023/03/17 04:35:57;;;;;;;;;;;;;;;-1.00;72.62;101968.08;107486;1253;99259;-61
2023/03/17 04:38:25;;;;;;;;;;;;;;;-0.95;72.34;101970.27;107462;1253;113765;-60
2023/03/17 04:40:54;;;;;;;;;;;;;;;-0.91;72.28;101972.13;107492;1253;109655;-62
2023/03/17 04:43:22;;;;;;;;;;;;;;;-0.87;72.09;101976.81;107444;1253;107922;-61
2023/03/17 04:45:51;;;;;;;;;;;;;;;-0.83;71.78;101976.89;107478;1254;99067;-62
2023/03/17 04:48:20;;;;;;;;;;;;;;;-0.80;71.81;101978.22;107476;1253;99258;-61
2023/03/17 04:50:48;;;;;;;;;;;;;;;-0.77;71.88;101979.75;107432;1254;113363;-61
2023/03/17 04:53:17;;;;;;;;;;;;;;;-0.69;71.79;101980.30;107473;1254;108796;-61
2023/03/17 04:55:45;;;;;;;;;;;;;;;-0.63;71.51;101979.80;107391;1254;106693;-62
2023/03/17 04:58:13;;;;;;;;;;;;;;;-0.55;71.61;101980.52;107495;1254;99244;-61
2023/03/17 05:00:57;;;;;;;;;;;;;;;-0.45;71.34;101981.85;107478;1253;99176;-63
2023/03/17 05:03:26;;;;;;;;;;;;;;;-0.35;71.27;101981.09;107494;1254;113697;-61
2023/03/17 05:05:56;;;;;;;;;;;;;;;-0.23;71.01;101980.65;107475;1257;109304;-60
2023/03/17 05:08:27;;;;;;;;;;;;;;;-0.17;70.52;101978.22;107525;1254;107976;-62
2023/03/17 05:10:56;;;;;;;;;;;;;;;-0.15;69.95;101981.51;107472;1254;99275;-61
2023/03/17 05:13:25;;;;;;;;;;;;;;;-0.14;70.12;101984.66;107489;1254;99034;-62
2023/03/17 05:15:54;;;;;;;;;;;;;;;-0.12;70.08;101989.71;107471;1253;112730;-62
2023/03/17 05:18:23;;;;;;;;;;;;;;;-0.13;69.95;101991.17;107482;1254;109789;-62
2023/03/17 05:20:52;;;;;;;;;;;;;;;-0.08;69.98;101994.58;107457;1254;108670;-62
2023/03/17 05:23:21;;;;;;;;;;;;;;;0.03;69.94;101999.79;107463;1254;99191;-62
2023/03/17 05:25:49;;;;;;;;;;;;;;;0.08;69.65;101999.83;107487;1253;99262;-61
2023/03/17 05:28:21;;;;;;;;;;;;;;;0.12;69.44;101999.90;107463;1254;113250;-63
2023/03/17 05:30:49;;;;;;;;;;;;;;;0.12;69.11;102000.78;107493;1253;109273;-62
2023/03/17 05:33:18;;;;;;;;;;;;;;;0.19;69.27;102000.61;107444;1254;108222;-61
2023/03/17 05:35:47;;;;;;;;;;;;;;;0.26;69.33;101996.20;107464;1254;99192;-62
2023/03/17 05:38:16;;;;;;;;;;;;;;;0.32;69.11;101997.82;107492;1253;99351;-62
2023/03/17 05:40:44;;;;;;;;;;;;;;;0.36;69.04;102004.77;107493;1254;113728;-61
2023/03/17 05:43:12;;;;;;;;;;;;;;;0.43;68.90;102014.11;107458;1253;110135;-61
2023/03/17 05:45:41;;;;;;;;;;;;;;;0.49;68.88;102018.91;107450;1254;107171;-61
2023/03/17 05:48:11;;;;;;;;;;;;;;;0.44;68.03;102022.19;107492;1254;99232;-60
2023/03/17 05:50:40;;;;;;;;;;;;;;;0.41;68.04;102025.63;107540;1254;99186;-63
2023/03/17 05:53:09;;;;;;;;;;;;;;;0.43;68.34;102031.23;107497;1253;112562;-61
2023/03/17 05:55:37;;;;;;;;;;;;;;;0.45;67.84;102036.66;107488;1253;109174;-62
2023/03/17 05:58:06;;;;;;;;;;;;;;;0.48;67.78;102033.94;107416;1254;108125;-63
2023/03/17 06:00:36;;;;;;;;;;;;;;;0.57;68.13;102033.16;107422;1253;99070;-63
2023/03/17 06:03:04;;;;;;;;;;;;;;;0.70;68.09;102034.96;107416;1254;99299;-65
2023/03/17 06:05:33;;;;;;;;;;;;;;;0.81;67.54;102030.23;107420;1254;113102;-61
2023/03/17 06:08:03;;;;;;;;;;;;;;;0.91;67.68;102032.60;107421;1254;110369;-62
2023/03/17 06:10:31;;;;;;;;;;;;;;;1.00;67.29;102032.71;107449;1254;107948;-62
2023/03/17 06:13:01;;;;;;;;;;;;;;;1.10;67.04;102035.80;107430;1254;99019;-61
2023/03/17 06:15:32;;;;;;;;;;;;;;;1.18;66.74;102036.60;107513;1254;99751;-62
2023/03/17 06:18:01;;;;;;;;;;;;;;;1.25;66.58;102038.69;107506;1254;113601;-62
2023/03/17 06:20:31;;;;;;;;;;;;;;;1.33;66.56;102039.02;107467;1253;109317;-62
2023/03/17 06:23:00;;;;;;;;;;;;;;;1.40;66.21;102044.82;107442;1254;107642;-64
2023/03/17 06:25:33;;;;;;;;;;;;;;;1.48;66.24;102040.68;107463;1254;99346;-62
2023/03/17 06:28:02;;;;;;;;;;;;;;;1.57;65.58;102048.20;107490;1254;99109;-62
2023/03/17 06:30:31;;;;;;;;;;;;;;;1.65;65.34;102045.67;107449;1254;113721;-62
2023/03/17 06:33:01;;;;;;;;;;;;;;;1.73;64.79;102050.70;107454;1254;109534;-62
2023/03/17 06:35:29;;;;;;;;;;;;;;;1.80;64.72;102051.55;107462;1254;107770;-62
2023/03/17 06:37:59;;;;;;;;;;;;;;;1.89;64.58;102054.13;107460;1253;99207;-61
2023/03/17 06:40:28;;;;;;;;;;;;;;;1.95;64.70;102051.99;107531;1254;99145;-63
2023/03/17 06:42:57;;;;;;;;;;;;;;;2.03;64.43;102051.20;107484;1253;111816;-62
2023/03/17 06:45:25;;;;;;;;;;;;;;;2.11;63.60;102049.91;107482;1254;109308;-62
2023/03/17 06:47:54;;;;;;;;;;;;;;;2.18;63.97;102055.50;107475;1254;109648;-62
2023/03/17 06:50:22;;;;;;;;;;;;;;;2.27;63.44;102050.97;107473;1254;99142;-63
2023/03/17 06:52:50;;;;;;;;;;;;;;;2.35;62.79;102051.24;107465;1254;99197;-62
2023/03/17 06:55:18;;;;;;;;;;;;;;;2.41;63.21;102053.15;107492;1253;113834;-62
2023/03/17 06:57:47;;;;;;;;;;;;;;;2.49;63.16;102053.79;107488;1253;109021;-61
2023/03/17 07:00:18;;;;;;;;;;;;;;;2.55;62.85;102054.83;107487;1254;107646;-62
2023/03/17 07:02:47;;;;;;;;;;;;;;;2.60;62.69;102054.27;107529;1253;99164;-61
2023/03/17 07:05:16;;;;;;;;;;;;;;;2.65;62.89;102053.59;107520;1254;99259;-64
2023/03/17 07:07:45;;;;;;;;;;;;;;;2.74;62.31;102053.08;107426;1254;112680;-62
2023/03/17 07:10:14;;;;;;;;;;;;;;;2.84;62.21;102047.95;107514;1254;109060;-64
2023/03/17 07:12:43;;;;;;;;;;;;;;;2.93;62.01;102049.59;107451;1254;106932;-62
2023/03/17 07:15:12;;;;;;;;;;;;;;;3.00;61.44;102051.80;107460;1254;99241;-61
2023/03/17 07:17:40;;;;;;;;;;;;;;;3.11;60.84;102043.80;107485;1254;99058;-62
2023/03/17 07:20:10;;;;;;;;;;;;;;;3.21;60.28;102046.45;107492;1254;113114;-62
2023/03/17 07:22:39;;;;;;;;;;;;;;;3.27;59.25;102048.52;107442;1254;109259;-62
2023/03/17 07:25:08;;;;;;;;;;;;;;;3.33;59.14;102047.96;107492;1254;108820;-61
2023/03/17 07:27:37;;;;;;;;;;;;;;;3.38;58.82;102042.77;107497;1254;99063;-62
2023/03/17 07:30:06;;;;;;;;;;;;;;;3.46;58.39;102044.98;107463;1254;99167;-61
2023/03/17 07:32:35;;;;;;;;;;;;;;;3.51;57.60;102041.06;107430;1254;113099;-61
2023/03/17 07:35:03;;;;;;;;;;;;;;;3.57;57.54;102040.64;107499;1254;110571;-62
2023/03/17 07:37:32;;;;;;;;;;;;;;;3.65;57.49;102039.45;107468;1254;107057;-62
2023/03/17 07:40:00;;;;;;;;;;;;;;;3.74;57.51;102038.95;107497;1253;99186;-62
2023/03/17 07:42:29;;;;;;;;;;;;;;;3.83;57.00;102040.52;107474;1254;99185;-63
2023/03/17 07:44:57;;;;;;;;;;;;;;;3.91;55.53;102040.38;107513;1254;113652;-61
2023/03/17 07:47:25;;;;;;;;;;;;;;;4.01;54.13;102034.64;107490;1254;108848;-62
2023/03/17 07:49:54;;;;;;;;;;;;;;;4.11;54.27;102039.42;107469;1254;107651;-61
2023/03/17 07:52:22;;;;;;;;;;;;;;;4.17;53.80;102038.83;107481;1257;99268;-62
2023/03/17 07:54:51;;;;;;;;;;;;;;;4.26;53.57;102035.41;107437;1254;99156;-63
2023/03/17 07:57:20;;;;;;;;;;;;;;;4.35;53.05;102036.63;107532;1254;112683;-63
2023/03/17 07:59:49;;;;;;;;;;;;;;;4.44;52.69;102033.78;107406;1254;110706;-62
2023/03/17 08:02:18;;;;;;;;;;;;;;;4.53;52.12;102033.06;107399;1254;108180;-61
2023/03/17 08:04:47;;;;;;;;;;;;;;;4.61;52.28;102032.88;107367;1253;99172;-62
2023/03/17 08:07:15;;;;;;;;;;;;;;;4.75;51.17;102029.25;107503;1253;99053;-62
2023/03/17 08:09:43;;;;;;;;;;;;;;;4.85;51.22;102026.34;107464;1254;113801;-63
2023/03/17 08:12:12;;;;;;;;;;;;;;;4.96;51.09;102030.44;107492;1253;109450;-62
2023/03/17 08:14:40;;;;;;;;;;;;;;;5.14;49.83;102023.61;107480;1254;108810;-61
2023/03/17 08:17:09;;;;;;;;;;;;;;;5.36;49.59;102026.19;107495;1254;99169;-61
2023/03/17 08:19:37;;;;;;;;;;;;;;;5.52;50.09;102032.02;107483;1254;99087;-63
2023/03/17 08:22:06;;;;;;;;;;;;;;;5.69;50.22;102032.27;107507;1254;113327;-63
2023/03/17 08:24:35;;;;;;;;;;;;;;;5.82;49.58;102027.02;107515;1254;110205;-62
2023/03/17 08:27:04;;;;;;;;;;;;;;;5.94;48.71;102019.89;107436;1254;108084;-61
2023/03/17 08:29:32;;;;;;;;;;;;;;;6.10;48.24;102020.02;107421;1254;99180;-62
2023/03/17 08:32:02;;;;;;;;;;;;;;;6.24;47.09;102020.73;107508;1254;99182;-61
2023/03/17 08:34:30;;;;;;;;;;;;;;;6.39;46.59;102018.39;107532;1254;112693;-63
2023/03/17 08:36:59;;;;;;;;;;;;;;;6.51;46.72;102017.44;107526;1253;109220;-62
2023/03/17 08:39:28;;;;;;;;;;;;;;;6.60;45.17;102006.96;107517;1254;107424;-61
2023/03/17 08:41:56;;;;;;;;;;;;;;;6.72;45.45;102004.57;107549;1254;99179;-62
2023/03/17 08:44:25;;;;;;;;;;;;;;;6.87;45.41;102005.94;107420;1254;99799;-63
2023/03/17 08:46:53;;;;;;;;;;;;;;;7.02;44.68;102002.24;107488;1253;111354;-62
2023/03/17 08:49:22;;;;;;;;;;;;;;;7.22;42.65;101999.55;107511;1253;109640;-62
2023/03/17 08:51:50;;;;;;;;;;;;;;;7.36;43.43;102002.92;107457;1254;107589;-62
2023/03/17 08:54:19;;;;;;;;;;;;;;;7.53;43.44;101993.27;107483;1254;99060;-64
2023/03/17 08:56:47;;;;;;;;;;;;;;;7.69;43.04;101997.34;107534;1254;99087;-63
2023/03/17 08:59:15;;;;;;;;;;;;;;;7.88;41.50;101990.76;107478;1254;112752;-61
2023/03/17 09:01:44;;;;;;;;;;;;;;;8.02;41.82;101991.88;107422;1253;110202;-61
2023/03/17 09:04:14;;;;;;;;;;;;;;;8.23;41.51;101986.05;107448;1253;108145;-64
2023/03/17 09:06:50;;;;;;;;;;;;;;;8.42;40.91;101984.88;107375;1254;99210;-62
2023/03/17 09:09:32;;;;;;;;;;;;;;;8.62;39.91;101977.84;107460;1254;99172;-62
2023/03/17 09:12:01;;;;;;;;;;;;;;;8.71;39.19;101971.74;107499;1254;113346;-61
2023/03/17 09:14:31;;;;;;;;;;;;;;;8.80;38.39;101970.48;107494;1254;110077;-61
2023/03/17 09:17:12;;;;;;;;;;;;;;;9.06;39.07;101974.64;107530;1254;107831;-63
2023/03/17 09:19:42;;;;;;;;;;;;;;;9.37;37.85;101967.14;107530;1254;99172;-63
2023/03/17 09:22:16;;;;;;;;;;;;;;;9.63;38.19;101973.08;107398;1255;99210;-62
2023/03/17 09:24:45;;;;;;;;;;;;;;;9.90;37.77;101972.77;107474;1253;112304;-62
2023/03/17 09:27:13;;;;;;;;;;;;;;;10.01;36.34;101968.46;107544;1254;109443;-64
2023/03/17 09:29:58;;;;;;;;;;;;;;;10.43;35.47;101969.77;107434;1254;108063;-63
2023/03/17 09:32:47;;;;;;;;;;;;;;;11.14;34.25;101962.30;107386;1254;99172;-64
2023/03/17 09:35:19;;;;;;;;;;;;;;;12.04;32.07;101957.70;107305;1254;99179;-64
2023/03/17 09:37:48;;;;;;;;;;;;;;;12.71;30.58;101952.59;107499;1254;113922;-63
2023/03/17 09:40:18;;;;;;;;;;;;;;;12.86;29.77;101957.86;107478;1253;109108;-64
2023/03/17 09:42:55;;;;;;;;;;;;;;;13.48;29.95;101959.95;107314;1254;108720;-63
2023/03/17 09:45:30;;;;;;;;;;;;;;;13.97;29.52;101962.81;107516;1254;99172;-63
2023/03/17 09:48:03;;;;;;;;;;;;;;;14.58;29.44;101955.99;107523;1254;99215;-62
2023/03/17 09:50:47;;;;;;;;;;;;;;;15.14;28.67;101956.79;107570;1254;113059;-63
2023/03/17 09:53:19;;;;;;;;;;;;;;;15.89;29.12;101956.66;106922;1253;743735;-63
2023/03/17 09:55:51;;;;;;;;;;;;;;;16.45;27.29;101958.69;107340;1253;108805;-63
2023/03/17 09:58:23;;;;;;;;;;;;;;;17.11;22.90;101952.46;107402;1253;99818;-64
2023/03/17 10:00:52;;;;;;;;;;;;;;;17.35;22.17;101943.90;107404;1253;99214;-67
2023/03/17 10:03:21;;;;;;;;;;;;;;;17.44;22.88;101942.16;107321;1254;112778;-63
2023/03/17 10:05:50;;;;;;;;;;;;;;;17.97;22.20;101939.95;107324;1254;109946;-63
2023/03/17 10:08:29;;;;;;;;;;;;;;;18.16;21.43;101951.45;107335;1254;107553;-63
2023/03/17 10:11:07;;;;;;;;;;;;;;;18.46;21.78;101943.50;107401;1256;99189;-67
2023/03/17 10:13:44;;;;;;;;;;;;;;;18.82;20.81;101937.96;107451;1255;99067;-65
2023/03/17 10:16:42;;;;;;;;;;;;;;;18.93;21.39;101933.16;107391;1254;112451;-63
2023/03/17 10:19:20;;;;;;;;;;;;;;;19.48;20.22;101929.38;106891;1254;109632;-65
2023/03/17 10:21:52;;;;;;;;;;;;;;;19.14;20.75;101932.18;107412;1257;107573;-65
2023/03/17 10:24:22;;;;;;;;;;;;;;;18.19;20.83;101933.10;107413;1254;99282;-63
2023/03/17 10:26:52;;;;;;;;;;;;;;;17.87;21.31;101928.27;107435;1254;99181;-64
2023/03/17 10:29:24;;;;;;;;;;;;;;;18.42;21.24;101923.02;107388;1254;113949;-64
2023/03/17 10:31:54;;;;;;;;;;;;;;;18.93;21.22;101924.04;107438;1254;109227;-65
2023/03/17 10:34:27;;;;;;;;;;;;;;;19.24;20.46;101917.51;107414;1254;107184;-64
2023/03/17 10:37:07;;;;;;;;;;;;;;;19.93;19.52;101907.00;107427;1255;99141;-64
2023/03/17 10:39:45;;;;;;;;;;;;;;;20.40;19.11;101905.73;107479;1258;99272;-64
2023/03/17 10:42:26;;;;;;;;;;;;;;;20.18;18.10;101907.30;107384;1258;113077;-64
2023/03/17 10:44:57;;;;;;;;;;;;;;;20.15;17.56;101897.98;107339;1256;109606;-63
2023/03/17 10:47:58;;;;;;;;;;;;;;;20.17;18.05;101899.92;107367;1259;107704;-62
2023/03/17 10:50:31;;;;;;;;;;;;;;;20.23;18.31;101896.61;107057;1254;99332;-62
2023/03/17 10:53:00;;;;;;;;;;;;;;;20.60;18.35;101900.98;107363;1256;99062;-63
2023/03/17 10:55:31;;;;;;;;;;;;;;;19.91;17.83;101902.56;107363;1257;113131;-62
2023/03/17 10:58:02;;;;;;;;;;;;;;;19.96;19.27;101887.88;107411;1255;109707;-63
2023/03/17 11:00:35;;;;;;;;;;;;;;;20.65;18.64;101880.12;107304;1259;108761;-63
2023/03/17 11:03:13;;;;;;;;;;;;;;;21.05;18.37;101887.46;107410;1257;99188;-64
2023/03/17 11:05:52;;;;;;;;;;;;;;;20.91;16.59;101878.73;107515;1254;99070;-64
2023/03/17 11:08:22;;;;;;;;;;;;;;;19.90;16.20;101883.60;107515;1254;112429;-64
2023/03/17 11:10:55;;;;;;;;;;;;;;;20.03;16.82;101873.06;107542;1254;110903;-64
2023/03/17 11:13:28;;;;;;;;;;;;;;;20.69;17.66;101868.84;107513;1258;107753;-65
2023/03/17 11:16:09;;;;;;;;;;;;;;;20.79;17.04;101864.16;107348;1254;99183;-66
2023/03/17 11:18:38;;;;;;;;;;;;;;;20.30;16.67;101868.76;107561;1253;99048;-63
2023/03/17 11:21:09;;;;;;;;;;;;;;;20.55;17.39;101863.60;107335;1254;113381;-65
2023/03/17 11:23:52;;;;;;;;;;;;;;;20.97;17.87;101866.55;107499;1254;109473;-64
2023/03/17 11:26:26;;;;;;;;;;;;;;;20.55;16.69;101864.36;107533;1253;108118;-66
2023/03/17 11:29:14;;;;;;;;;;;;;;;20.13;17.27;101858.30;107534;1258;99199;-65
2023/03/17 11:32:06;;;;;;;;;;;;;;;19.98;17.12;101855.29;107433;1254;99183;-64
2023/03/17 11:34:58;;;;;;;;;;;;;;;19.88;17.54;101852.33;107190;1254;112804;-64
2023/03/17 11:37:26;;;;;;;;;;;;;;;19.92;17.14;101843.51;107422;1254;108935;-64
2023/03/17 11:40:13;;;;;;;;;;;;;;;19.76;17.15;101845.34;107522;1254;108067;-65
2023/03/17 11:42:45;;;;;;;;;;;;;;;19.60;17.14;101854.64;107544;1254;99826;-64
2023/03/17 11:45:24;;;;;;;;;;;;;;;19.39;17.34;101854.25;107550;1258;99172;-63
2023/03/17 11:47:56;;;;;;;;;;;;;;;19.08;17.24;101853.20;107464;1254;112540;-64
2023/03/17 11:50:26;;;;;;;;;;;;;;;18.74;17.29;101847.53;107436;1255;110180;-63
2023/03/17 11:52:57;;;;;;;;;;;;;;;18.71;17.81;101842.98;107514;1254;108117;-64
2023/03/17 11:55:41;;;;;;;;;;;;;;;18.81;17.82;101840.02;107510;1254;99262;-64
2023/03/17 11:58:12;;;;;;;;;;;;;;;19.04;17.48;101840.52;107447;1255;99275;-65
2023/03/17 12:00:44;;;;;;;;;;;;;;;18.93;17.35;101842.04;107492;1254;113617;-64
2023/03/17 12:03:32;;;;;;;;;;;;;;;18.84;16.77;101840.83;107539;1254;109161;-65
2023/03/17 12:06:04;;;;;;;;;;;;;;;18.60;17.17;101842.52;107537;1254;108226;-63
2023/03/17 12:08:44;;;;;;;;;;;;;;;18.43;17.40;101843.95;107345;1254;99178;-64
2023/03/17 12:11:15;;;;;;;;;;;;;;;18.32;17.77;101843.64;107507;1254;99282;-64
2023/03/17 12:13:50;;;;;;;;;;;;;;;18.23;18.00;101841.52;107240;1261;112747;-64
2023/03/17 12:16:24;;;;;;;;;;;;;;;18.24;18.11;101842.11;107445;1254;109695;-62
2023/03/17 12:19:05;;;;;;;;;;;;;;;18.26;17.63;101841.90;107508;1258;107676;-63
2023/03/17 12:21:41;;;;;;;;;;;;;;;18.45;17.57;101846.64;107540;1257;99262;-62
2023/03/17 12:24:16;;;;;;;;;;;;;;;18.65;17.70;101847.78;107525;1254;99205;-62
2023/03/17 12:26:50;;;;;;;;;;;;;;;18.90;17.87;101839.84;107583;1254;112663;-62
2023/03/17 12:29:34;;;;;;;;;;;;;;;19.24;17.43;101838.61;107562;1253;109173;-63
2023/03/17 12:32:07;;;;;;;;;;;;;;;19.70;17.58;101834.84;107534;1254;108109;-63
2023/03/17 12:34:42;;;;;;;;;;;;;;;20.33;16.37;101831.08;107554;1254;99170;-63
2023/03/17 12:37:13;;;;;;;;;;;;;;;20.66;15.99;101836.00;107564;1254;99202;-64
2023/03/17 12:39:45;;;;;;;;;;;;;;;20.96;15.24;101830.30;107375;1254;113241;-62
2023/03/17 12:42:23;;;;;;;;;;;;;;;20.68;15.38;101826.13;107577;1254;109456;-65
2023/03/17 12:45:13;;;;;;;;;;;;;;;20.93;15.77;101831.96;107412;1254;107708;-64
2023/03/17 12:48:20;;;;;;;;;;;;;;;21.50;15.78;101832.94;107345;1259;99160;-64